createdAt,value
2018-10-12T00:01:16.376Z,15.12
2018-10-12T00:03:43.803Z,15.24
2018-10-12T00:06:11.240Z,15.40
2018-10-12T00:08:39.044Z,15.42
2018-10-12T00:11:06.483Z,15.42
2018-10-12T00:13:33.905Z,15.52
2018-10-12T00:16:01.343Z,15.59
2018-10-12T00:18:28.778Z,15.66
2018-10-12T00:20:56.204Z,15.67
2018-10-12T00:23:23.640Z,15.69
2018-10-12T00:25:51.072Z,15.81
2018-10-12T00:28:18.519Z,15.84
2018-10-12T00:30:45.967Z,15.79
2018-10-12T00:33:13.392Z,15.86
2018-10-12T00:35:40.812Z,15.84
2018-10-12T00:38:08.248Z,15.91
2018-10-12T00:40:35.681Z,15.97
2018-10-12T00:43:03.116Z,16.10
2018-10-12T00:45:30.527Z,16.08
2018-10-12T00:48:01.753Z,16.11
2018-10-12T00:50:30.743Z,16.11
2018-10-12T00:52:58.268Z,16.14
2018-10-12T00:55:26.588Z,16.14
2018-10-12T00:57:54.065Z,16.13
2018-10-12T01:00:21.603Z,16.17
2018-10-12T01:02:49.064Z,16.16
2018-10-12T01:05:16.508Z,16.19
2018-10-12T01:07:43.936Z,16.20
2018-10-12T01:10:11.363Z,16.18
2018-10-12T01:12:38.834Z,16.10
2018-10-12T01:15:06.264Z,16.05
2018-10-12T01:17:34.319Z,16.01
2018-10-12T01:20:01.769Z,15.95
2018-10-12T01:22:29.852Z,16.07
2018-10-12T01:24:58.335Z,16.06
2018-10-12T01:27:26.028Z,15.95
2018-10-12T01:29:53.856Z,15.89
2018-10-12T01:32:26.748Z,15.94
2018-10-12T01:34:54.552Z,15.83
2018-10-12T01:37:21.988Z,15.76
2018-10-12T01:39:49.454Z,15.75
2018-10-12T01:42:16.856Z,15.80
2018-10-12T01:44:44.272Z,15.84
2018-10-12T01:47:11.695Z,15.78
2018-10-12T01:49:39.484Z,15.72
2018-10-12T01:52:06.912Z,15.67
2018-10-12T01:54:34.345Z,15.63
2018-10-12T01:57:01.786Z,15.53
2018-10-12T01:59:29.205Z,15.41
2018-10-12T02:01:56.644Z,15.24
2018-10-12T02:04:24.072Z,15.23
2018-10-12T02:06:51.509Z,15.15
2018-10-12T02:09:18.935Z,15.04
2018-10-12T02:11:46.402Z,14.90
2018-10-12T02:14:13.840Z,15.07
2018-10-12T02:16:41.260Z,15.07
2018-10-12T02:19:08.689Z,15.09
2018-10-12T02:21:36.114Z,15.02
2018-10-12T02:24:03.872Z,15.07
2018-10-12T02:26:31.292Z,15.09
2018-10-12T02:28:58.996Z,15.05
2018-10-12T02:31:26.420Z,14.98
2018-10-12T02:33:53.853Z,14.84
2018-10-12T02:36:21.284Z,14.72
2018-10-12T02:38:48.715Z,14.76
2018-10-12T02:41:16.144Z,14.76
2018-10-12T02:43:43.570Z,14.72
2018-10-12T02:46:11.022Z,14.75
2018-10-12T02:48:38.459Z,14.68
2018-10-12T02:51:05.872Z,14.72
2018-10-12T02:53:33.307Z,14.69
2018-10-12T02:56:00.741Z,14.73
2018-10-12T02:58:28.171Z,14.79
2018-10-12T03:00:55.596Z,14.79
2018-10-12T03:03:23.027Z,14.70
2018-10-12T03:05:50.457Z,14.70
2018-10-12T03:08:17.886Z,14.65
2018-10-12T03:10:45.447Z,14.62
2018-10-12T03:13:12.880Z,14.54
2018-10-12T03:15:40.317Z,14.48
2018-10-12T03:18:07.753Z,14.53
2018-10-12T03:20:35.176Z,14.51
2018-10-12T03:23:02.623Z,14.40
2018-10-12T03:25:30.045Z,14.37
2018-10-12T03:27:57.667Z,14.39
2018-10-12T03:30:25.353Z,14.40
2018-10-12T03:32:52.777Z,14.43
2018-10-12T03:35:20.207Z,14.48
2018-10-12T03:37:47.627Z,14.58
2018-10-12T03:40:15.061Z,14.49
2018-10-12T03:42:42.495Z,14.46
2018-10-12T03:45:09.919Z,14.64
2018-10-12T03:47:37.345Z,14.67
2018-10-12T03:50:04.983Z,14.76
2018-10-12T03:52:32.416Z,14.79
2018-10-12T03:54:59.845Z,14.69
2018-10-12T03:57:27.272Z,14.77
2018-10-12T03:59:54.713Z,14.81
2018-10-12T04:02:22.143Z,14.82
2018-10-12T04:04:49.572Z,14.89
2018-10-12T04:07:17.014Z,14.69
2018-10-12T04:09:44.440Z,14.60
2018-10-12T04:12:11.883Z,14.60
2018-10-12T04:14:39.315Z,14.67
2018-10-12T04:17:06.739Z,14.53
2018-10-12T04:19:34.168Z,14.59
2018-10-12T04:22:01.600Z,14.74
2018-10-12T04:24:29.084Z,14.65
2018-10-12T04:26:56.503Z,14.54
2018-10-12T04:29:23.932Z,14.46
2018-10-12T04:31:51.360Z,14.46
2018-10-12T04:34:18.801Z,14.52
2018-10-12T04:36:46.244Z,14.56
2018-10-12T04:39:13.664Z,14.59
2018-10-12T04:41:41.098Z,14.58
2018-10-12T04:44:08.540Z,14.43
2018-10-12T04:46:38.246Z,14.37
2018-10-12T04:49:05.677Z,14.39
2018-10-12T04:51:34.660Z,14.43
2018-10-12T04:54:02.307Z,14.48
2018-10-12T04:56:29.726Z,14.45
2018-10-12T04:58:57.152Z,14.39
2018-10-12T05:01:24.670Z,14.30
2018-10-12T05:03:52.109Z,14.38
2018-10-12T05:06:19.595Z,14.41
2018-10-12T05:08:47.028Z,14.47
2018-10-12T05:11:14.464Z,14.43
2018-10-12T05:13:41.908Z,14.50
2018-10-12T05:16:09.331Z,14.47
2018-10-12T05:18:36.818Z,14.55
2018-10-12T05:21:04.615Z,14.50
2018-10-12T05:23:32.061Z,14.56
2018-10-12T05:26:00.040Z,14.53
2018-10-12T05:28:28.239Z,14.55
2018-10-12T05:30:55.868Z,14.59
2018-10-12T05:33:23.367Z,14.49
2018-10-12T05:35:50.800Z,14.66
2018-10-12T05:38:18.550Z,14.60
2018-10-12T05:40:45.980Z,14.58
2018-10-12T05:43:13.566Z,14.63
2018-10-12T05:45:40.936Z,14.71
2018-10-12T05:48:08.364Z,14.80
2018-10-12T05:50:35.864Z,14.83
2018-10-12T05:53:03.296Z,14.93
2018-10-12T05:55:30.764Z,14.95
2018-10-12T05:57:58.239Z,14.97
2018-10-12T06:00:25.668Z,15.03
2018-10-12T06:02:53.096Z,15.07
2018-10-12T06:05:20.720Z,15.13
2018-10-12T06:07:48.156Z,15.14
2018-10-12T06:10:15.588Z,15.13
2018-10-12T06:12:43.020Z,15.26
2018-10-12T06:15:10.444Z,15.36
2018-10-12T06:17:37.870Z,15.36
2018-10-12T06:20:05.338Z,15.46
2018-10-12T06:22:32.755Z,15.51
2018-10-12T06:25:00.180Z,15.55
2018-10-12T06:27:27.608Z,15.68
2018-10-12T06:29:55.096Z,15.65
2018-10-12T06:32:22.644Z,15.70
2018-10-12T06:34:50.083Z,15.81
2018-10-12T06:37:17.567Z,15.89
2018-10-12T06:39:44.992Z,15.93
2018-10-12T06:42:12.419Z,16.02
2018-10-12T06:44:39.844Z,16.10
2018-10-12T06:47:07.276Z,16.14
2018-10-12T06:49:34.723Z,16.19
2018-10-12T06:52:02.147Z,16.31
2018-10-12T06:54:29.584Z,16.40
2018-10-12T06:56:57.011Z,16.55
2018-10-12T06:59:24.443Z,16.59
2018-10-12T07:01:51.871Z,16.64
2018-10-12T07:04:19.396Z,16.80
2018-10-12T07:06:46.827Z,16.90
2018-10-12T07:09:14.477Z,16.95
2018-10-12T07:11:42.022Z,17.04
2018-10-12T07:14:09.572Z,17.17
2018-10-12T07:16:36.989Z,17.21
2018-10-12T07:19:04.412Z,17.30
2018-10-12T07:21:31.983Z,17.38
2018-10-12T07:23:59.405Z,17.52
2018-10-12T07:26:26.836Z,17.61
2018-10-12T07:28:54.265Z,17.78
2018-10-12T07:31:21.742Z,17.87
2018-10-12T07:33:49.172Z,17.87
2018-10-12T07:36:16.607Z,17.91
2018-10-12T07:38:44.037Z,17.88
2018-10-12T07:41:11.467Z,18.06
2018-10-12T07:43:38.930Z,18.09
2018-10-12T07:46:06.368Z,18.24
2018-10-12T07:48:33.792Z,18.39
2018-10-12T07:51:01.224Z,18.43
2018-10-12T07:53:28.657Z,18.47
2018-10-12T07:55:56.110Z,18.70
2018-10-12T07:58:23.568Z,18.74
2018-10-12T08:00:50.992Z,18.84
2018-10-12T08:03:18.415Z,18.96
2018-10-12T08:05:45.847Z,19.01
2018-10-12T08:08:13.387Z,19.11
2018-10-12T08:10:40.829Z,19.03
2018-10-12T08:13:08.255Z,19.20
2018-10-12T08:15:35.691Z,19.42
2018-10-12T08:18:03.124Z,19.39
2018-10-12T08:20:30.649Z,19.55
2018-10-12T08:22:58.031Z,19.79
2018-10-12T08:25:25.463Z,19.86
2018-10-12T08:27:53.144Z,19.86
2018-10-12T08:30:20.629Z,19.84
2018-10-12T08:32:48.061Z,19.89
2018-10-12T08:35:15.488Z,19.96
2018-10-12T08:37:42.956Z,20.08
2018-10-12T08:40:10.379Z,20.13
2018-10-12T08:42:37.897Z,20.21
2018-10-12T08:45:05.292Z,20.37
2018-10-12T08:47:32.732Z,20.39
2018-10-12T08:50:00.161Z,20.57
2018-10-12T08:52:27.637Z,20.66
2018-10-12T08:54:55.191Z,21.00
2018-10-12T08:57:22.632Z,21.02
2018-10-12T08:59:50.061Z,20.99
2018-10-12T09:02:17.497Z,21.01
2018-10-12T09:04:44.924Z,21.12
2018-10-12T09:07:12.363Z,21.03
2018-10-12T09:09:39.839Z,20.78
2018-10-12T09:12:07.272Z,20.89
2018-10-12T09:14:34.720Z,21.21
2018-10-12T09:17:02.151Z,21.38
2018-10-12T09:19:29.580Z,21.47
2018-10-12T09:21:57.210Z,21.57
2018-10-12T09:24:24.593Z,21.62
2018-10-12T09:26:52.018Z,21.69
2018-10-12T09:29:19.492Z,21.89
2018-10-12T09:31:46.922Z,21.71
2018-10-12T09:34:14.356Z,21.91
2018-10-12T09:36:41.864Z,22.03
2018-10-12T09:39:09.227Z,22.01
2018-10-12T09:41:36.691Z,22.17
2018-10-12T09:44:04.123Z,22.19
2018-10-12T09:46:31.559Z,22.23
2018-10-12T09:48:58.992Z,22.27
2018-10-12T09:51:26.508Z,22.25
2018-10-12T09:53:53.956Z,22.24
2018-10-12T09:56:21.384Z,22.25
2018-10-12T09:58:48.808Z,22.40
2018-10-12T10:01:21.668Z,22.55
2018-10-12T10:03:54.438Z,22.55
2018-10-12T10:06:21.865Z,22.67
2018-10-12T10:08:49.452Z,22.70
2018-10-12T10:11:16.711Z,22.63
2018-10-12T10:13:44.175Z,22.68
2018-10-12T10:16:11.556Z,22.78
2018-10-12T10:18:38.985Z,22.70
2018-10-12T10:21:06.416Z,22.80
2018-10-12T10:23:33.861Z,22.83
2018-10-12T10:26:01.436Z,23.02
2018-10-12T10:28:28.898Z,23.11
2018-10-12T10:30:56.346Z,23.26
2018-10-12T10:33:23.775Z,23.22
2018-10-12T10:35:51.220Z,23.14
2018-10-12T10:38:18.643Z,23.15
2018-10-12T10:40:46.135Z,23.19
2018-10-12T10:43:13.562Z,23.19
2018-10-12T10:45:41.019Z,23.36
2018-10-12T10:48:08.435Z,23.26
2018-10-12T10:50:35.857Z,23.42
2018-10-12T10:53:03.271Z,23.40
2018-10-12T10:55:30.708Z,23.43
2018-10-12T10:57:58.128Z,23.26
2018-10-12T11:00:25.595Z,23.16
2018-10-12T11:02:53.021Z,23.13
2018-10-12T11:05:20.439Z,23.18
2018-10-12T11:07:47.865Z,23.25
2018-10-12T11:10:15.315Z,23.23
2018-10-12T11:12:42.816Z,23.39
2018-10-12T11:15:10.168Z,23.49
2018-10-12T11:17:37.609Z,23.47
2018-10-12T11:20:05.036Z,23.55
2018-10-12T11:22:32.448Z,23.59
2018-10-12T11:24:59.880Z,23.66
2018-10-12T11:27:27.299Z,23.59
2018-10-12T11:29:54.741Z,23.55
2018-10-12T11:32:22.161Z,23.63
2018-10-12T11:34:49.581Z,23.69
2018-10-12T11:37:17.004Z,23.65
2018-10-12T11:39:44.442Z,23.77
2018-10-12T11:42:11.891Z,23.84
2018-10-12T11:44:39.327Z,23.75
2018-10-12T11:47:06.731Z,23.74
2018-10-12T11:49:34.156Z,23.80
2018-10-12T11:52:01.639Z,23.88
2018-10-12T11:54:28.994Z,23.87
2018-10-12T11:56:56.412Z,23.84
2018-10-12T11:59:24.416Z,23.92
2018-10-12T12:01:51.841Z,23.96
2018-10-12T12:04:19.432Z,23.95
2018-10-12T12:06:46.848Z,23.97
2018-10-12T12:09:14.275Z,23.98
2018-10-12T12:11:41.716Z,24.07
2018-10-12T12:14:09.143Z,24.03
2018-10-12T12:16:36.566Z,23.86
2018-10-12T12:19:04.008Z,23.95
2018-10-12T12:21:31.428Z,24.01
2018-10-12T12:23:58.882Z,23.99
2018-10-12T12:26:26.317Z,24.02
2018-10-12T12:28:53.733Z,24.07
2018-10-12T12:31:21.163Z,24.09
2018-10-12T12:33:48.580Z,24.03
2018-10-12T12:36:16.189Z,24.02
2018-10-12T12:38:44.140Z,24.06
2018-10-12T12:41:12.115Z,24.10
2018-10-12T12:43:39.548Z,24.07
2018-10-12T12:46:06.963Z,24.05
2018-10-12T12:48:34.685Z,24.04
2018-10-12T12:51:01.811Z,24.00
2018-10-12T12:53:29.232Z,23.94
2018-10-12T12:55:56.653Z,23.93
2018-10-12T12:58:24.133Z,23.93
2018-10-12T13:00:51.592Z,23.96
2018-10-12T13:03:18.973Z,23.99
2018-10-12T13:05:46.391Z,23.97
2018-10-12T13:08:13.847Z,23.99
2018-10-12T13:10:41.507Z,24.00
2018-10-12T13:13:08.923Z,24.01
2018-10-12T13:15:36.624Z,23.98
2018-10-12T13:18:04.048Z,23.96
2018-10-12T13:20:31.568Z,23.92
2018-10-12T13:22:58.975Z,23.96
2018-10-12T13:25:26.412Z,23.95
2018-10-12T13:27:53.802Z,23.92
2018-10-12T13:30:21.223Z,23.85
2018-10-12T13:32:48.631Z,23.81
2018-10-12T13:35:16.051Z,23.80
2018-10-12T13:37:43.525Z,23.73
2018-10-12T13:40:10.897Z,23.71
2018-10-12T13:42:38.319Z,23.69
2018-10-12T13:45:05.744Z,23.67
2018-10-12T13:47:33.172Z,23.62
2018-10-12T13:50:00.588Z,23.63
2018-10-12T13:52:28.002Z,23.61
2018-10-12T13:54:55.411Z,23.70
2018-10-12T13:57:22.848Z,23.53
2018-10-12T13:59:50.268Z,23.48
2018-10-12T14:02:17.696Z,23.56
2018-10-12T14:04:45.121Z,23.55
2018-10-12T14:07:12.548Z,23.59
2018-10-12T14:09:39.968Z,23.55
2018-10-12T14:12:07.390Z,23.57
2018-10-12T14:14:34.798Z,23.52
2018-10-12T14:17:02.206Z,23.46
2018-10-12T14:19:29.672Z,23.43
2018-10-12T14:21:57.068Z,23.51
2018-10-12T14:24:24.480Z,23.43
2018-10-12T14:26:51.970Z,23.44
2018-10-12T14:29:19.308Z,23.40
2018-10-12T14:31:46.727Z,23.38
2018-10-12T14:34:14.144Z,23.29
2018-10-12T14:36:41.567Z,23.35
2018-10-12T14:39:09.256Z,23.33
2018-10-12T14:41:36.925Z,23.34
2018-10-12T14:44:04.555Z,23.26
2018-10-12T14:46:31.864Z,23.18
2018-10-12T14:48:59.296Z,23.24
2018-10-12T14:51:26.817Z,23.23
2018-10-12T14:53:54.183Z,23.17
2018-10-12T14:56:21.601Z,23.15
2018-10-12T14:58:49.041Z,23.13
2018-10-12T15:01:16.444Z,23.10
2018-10-12T15:03:43.875Z,23.05
2018-10-12T15:06:11.291Z,23.01
2018-10-12T15:08:38.716Z,22.95
2018-10-12T15:11:06.141Z,22.88
2018-10-12T15:13:33.563Z,22.88
2018-10-12T15:16:00.990Z,22.80
2018-10-12T15:18:28.413Z,22.70
2018-10-12T15:20:55.867Z,22.67
2018-10-12T15:23:23.257Z,22.65
2018-10-12T15:25:50.668Z,22.54
2018-10-12T15:28:18.110Z,22.50
2018-10-12T15:30:45.520Z,22.42
2018-10-12T15:33:12.940Z,22.33
2018-10-12T15:35:40.355Z,22.26
2018-10-12T15:38:07.802Z,22.23
2018-10-12T15:40:35.216Z,22.17
2018-10-12T15:43:02.743Z,22.08
2018-10-12T15:45:30.063Z,22.05
2018-10-12T15:47:57.501Z,22.00
2018-10-12T15:50:24.920Z,21.90
2018-10-12T15:52:52.348Z,21.78
2018-10-12T15:55:19.760Z,21.67
2018-10-12T15:57:47.189Z,21.65
2018-10-12T16:00:14.608Z,21.56
2018-10-12T16:02:42.075Z,21.46
2018-10-12T16:05:09.484Z,21.38
2018-10-12T16:07:36.904Z,21.24
2018-10-12T16:10:04.311Z,21.27
2018-10-12T16:12:31.744Z,21.27
2018-10-12T16:14:59.164Z,21.07
2018-10-12T16:17:26.588Z,21.00
2018-10-12T16:19:54.018Z,21.04
2018-10-12T16:22:21.493Z,20.97
2018-10-12T16:24:48.868Z,20.80
2018-10-12T16:27:16.297Z,20.81
2018-10-12T16:29:43.715Z,20.81
2018-10-12T16:32:11.136Z,20.58
2018-10-12T16:34:38.570Z,20.58
2018-10-12T16:37:06.010Z,20.50
2018-10-12T16:39:33.423Z,20.50
2018-10-12T16:42:00.844Z,20.51
2018-10-12T16:44:28.267Z,20.43
2018-10-12T16:46:55.692Z,20.34
2018-10-12T16:49:23.113Z,20.26
2018-10-12T16:51:50.547Z,20.26
2018-10-12T16:54:17.987Z,20.11
2018-10-12T16:56:45.401Z,20.02
2018-10-12T16:59:12.832Z,20.03
2018-10-12T17:01:40.248Z,20.03
2018-10-12T17:04:07.705Z,19.95
2018-10-12T17:06:35.110Z,19.89
2018-10-12T17:09:02.551Z,19.89
2018-10-12T17:11:29.999Z,19.94
2018-10-12T17:13:57.432Z,19.88
2018-10-12T17:16:24.863Z,19.82
2018-10-12T17:18:52.294Z,19.73
2018-10-12T17:21:19.712Z,19.62
2018-10-12T17:23:47.144Z,19.57
2018-10-12T17:26:14.565Z,19.56
2018-10-12T17:28:41.988Z,19.65
2018-10-12T17:31:09.417Z,19.59
2018-10-12T17:33:36.861Z,19.57
2018-10-12T17:36:04.283Z,19.52
2018-10-12T17:38:31.710Z,19.47
2018-10-12T17:40:59.131Z,19.21
2018-10-12T17:43:26.560Z,19.08
2018-10-12T17:45:53.984Z,18.86
2018-10-12T17:48:21.410Z,18.61
2018-10-12T17:50:48.851Z,18.59
2018-10-12T17:53:16.278Z,18.53
2018-10-12T17:55:43.704Z,18.48
2018-10-12T17:58:11.131Z,18.32
2018-10-12T18:00:38.557Z,18.32
2018-10-12T18:03:05.996Z,18.47
2018-10-12T18:05:33.444Z,18.61
2018-10-12T18:08:00.885Z,18.50
2018-10-12T18:10:28.308Z,18.41
2018-10-12T18:12:55.737Z,18.47
2018-10-12T18:15:23.485Z,18.33
2018-10-12T18:17:50.927Z,17.92
2018-10-12T18:20:18.345Z,17.93
2018-10-12T18:22:45.767Z,17.99
2018-10-12T18:25:13.231Z,17.87
2018-10-12T18:27:40.653Z,17.74
2018-10-12T18:30:08.081Z,17.62
2018-10-12T18:32:35.504Z,17.58
2018-10-12T18:35:02.944Z,17.54
2018-10-12T18:37:30.377Z,17.26
2018-10-12T18:39:57.800Z,17.37
2018-10-12T18:42:25.225Z,17.34
2018-10-12T18:44:52.654Z,17.37
2018-10-12T18:47:20.075Z,17.22
2018-10-12T18:49:47.552Z,17.04
2018-10-12T18:52:14.977Z,17.12
2018-10-12T18:54:42.400Z,17.20
2018-10-12T18:57:09.820Z,17.08
2018-10-12T18:59:37.282Z,17.17
2018-10-12T19:02:04.677Z,17.33
2018-10-12T19:04:32.402Z,17.40
2018-10-12T19:06:59.771Z,17.43
2018-10-12T19:09:27.207Z,17.37
2018-10-12T19:11:54.708Z,17.43
2018-10-12T19:14:22.137Z,17.41
2018-10-12T19:16:49.545Z,17.35
2018-10-12T19:19:16.968Z,17.43
2018-10-12T19:21:44.404Z,17.41
2018-10-12T19:24:11.909Z,17.37
2018-10-12T19:26:39.275Z,17.28
2018-10-12T19:29:06.685Z,17.21
2018-10-12T19:31:34.288Z,17.04
2018-10-12T19:34:01.543Z,17.08
2018-10-12T19:36:28.976Z,17.16
2018-10-12T19:38:56.409Z,17.11
2018-10-12T19:41:23.823Z,17.09
2018-10-12T19:43:51.244Z,17.08
2018-10-12T19:46:18.688Z,16.94
2018-10-12T19:48:46.125Z,16.86
2018-10-12T19:51:13.554Z,16.84
2018-10-12T19:53:40.973Z,16.88
2018-10-12T19:56:08.517Z,16.93
2018-10-12T19:58:35.972Z,16.65
2018-10-12T20:01:03.404Z,16.65
2018-10-12T20:03:30.823Z,16.74
2018-10-12T20:05:58.252Z,16.70
2018-10-12T20:08:25.689Z,16.64
2018-10-12T20:10:53.127Z,16.62
2018-10-12T20:13:20.543Z,16.50
2018-10-12T20:15:47.971Z,16.44
2018-10-12T20:18:15.398Z,16.35
2018-10-12T20:20:42.831Z,15.99
2018-10-12T20:23:10.247Z,15.99
2018-10-12T20:25:37.683Z,16.03
2018-10-12T20:28:05.114Z,15.94
2018-10-12T20:30:32.536Z,15.98
2018-10-12T20:32:59.971Z,15.88
2018-10-12T20:35:27.403Z,16.03
2018-10-12T20:37:54.825Z,16.10
2018-10-12T20:40:22.264Z,16.10
2018-10-12T20:42:49.684Z,16.09
2018-10-12T20:45:23.606Z,15.94
2018-10-12T20:47:51.079Z,15.89
2018-10-12T20:50:18.503Z,15.84
2018-10-12T20:52:45.936Z,15.80
2018-10-12T20:55:13.356Z,15.83
2018-10-12T20:57:48.545Z,15.80
2018-10-12T21:00:16.935Z,15.84
2018-10-12T21:02:44.329Z,15.87
2018-10-12T21:05:12.181Z,15.85
2018-10-12T21:07:39.608Z,15.95
2018-10-12T21:10:07.446Z,15.94
2018-10-12T21:12:34.838Z,15.81
2018-10-12T21:15:02.257Z,15.76
2018-10-12T21:17:29.724Z,15.72
2018-10-12T21:19:57.144Z,15.55
2018-10-12T21:22:24.576Z,15.51
2018-10-12T21:24:52.007Z,15.59
2018-10-12T21:27:19.450Z,15.66
2018-10-12T21:29:46.864Z,15.48
2018-10-12T21:32:14.320Z,15.48
2018-10-12T21:34:41.802Z,15.40
2018-10-12T21:37:09.233Z,15.48
2018-10-12T21:39:36.655Z,15.63
2018-10-12T21:42:04.190Z,15.53
2018-10-12T21:44:31.588Z,15.49
2018-10-12T21:46:59.020Z,15.48
2018-10-12T21:49:26.445Z,15.35
2018-10-12T21:51:53.877Z,15.33
2018-10-12T21:54:21.292Z,15.21
2018-10-12T21:56:48.733Z,15.05
2018-10-12T21:59:16.180Z,15.05
2018-10-12T22:01:43.622Z,15.13
2018-10-12T22:04:11.049Z,15.22
2018-10-12T22:06:38.476Z,15.20
2018-10-12T22:09:06.604Z,15.20
2018-10-12T22:11:34.048Z,15.10
2018-10-12T22:14:01.481Z,15.00
2018-10-12T22:16:28.887Z,15.07
2018-10-12T22:18:56.309Z,15.07
2018-10-12T22:21:23.731Z,15.07
2018-10-12T22:23:51.157Z,14.97
2018-10-12T22:26:18.636Z,14.98
2018-10-12T22:28:46.016Z,14.88
2018-10-12T22:31:13.448Z,14.91
2018-10-12T22:33:40.873Z,14.80
2018-10-12T22:36:08.293Z,14.94
2018-10-12T22:38:35.720Z,14.80
2018-10-12T22:41:03.148Z,14.73
2018-10-12T22:43:30.603Z,14.86
2018-10-12T22:45:58.031Z,14.66
2018-10-12T22:48:25.464Z,14.73
2018-10-12T22:50:52.888Z,14.89
2018-10-12T22:53:20.311Z,14.92
2018-10-12T22:55:47.735Z,14.88
2018-10-12T22:58:15.181Z,14.85
2018-10-12T23:00:42.618Z,14.67
2018-10-12T23:03:10.045Z,14.60
2018-10-12T23:05:37.468Z,14.67
2018-10-12T23:08:04.916Z,14.52
2018-10-12T23:10:32.343Z,14.28
2018-10-12T23:12:59.773Z,14.24
2018-10-12T23:15:27.199Z,14.30
2018-10-12T23:17:54.645Z,14.38
2018-10-12T23:20:22.067Z,14.43
2018-10-12T23:22:49.507Z,14.46
2018-10-12T23:25:16.936Z,14.33
2018-10-12T23:27:44.364Z,14.34
2018-10-12T23:30:11.785Z,14.23
2018-10-12T23:32:39.212Z,14.26
2018-10-12T23:35:06.636Z,14.34
2018-10-12T23:37:34.081Z,14.50
2018-10-12T23:40:01.527Z,14.57
2018-10-12T23:42:29.003Z,14.40
2018-10-12T23:44:56.445Z,14.46
2018-10-12T23:47:23.965Z,14.53
2018-10-12T23:49:51.336Z,14.57
2018-10-12T23:52:18.763Z,14.61
2018-10-12T23:54:46.463Z,14.37
2018-10-12T23:57:13.883Z,14.57
2018-10-12T23:59:41.325Z,14.54
